Time;durP1;ratioP1;P1;durP2;ratioP2;P2;SDS_P1;SDS_P2;PMS_P1;PMS_P2;Temp;Humidity;BMP_temperature;BMP_pressure;BME280_temperature;BME280_humidity;BME280_pressure;Samples;Min_cycle;Max_cycle;Signal;HPM_P1;HPM_P2
2023/10/18 06:43:06;;;;;;;52.10;29.90;;;;;;;3.34;100.00;101453.55;105259;1281;601726;-85
2023/10/18 06:45:40;;;;;;;49.10;29.00;;;;;;;3.57;100.00;101454.05;107191;1261;57459;-84
2023/10/18 06:48:10;;;;;;;53.80;31.40;;;;;;;3.76;100.00;101453.27;107641;1248;58947;-85
2023/10/18 06:50:40;;;;;;;55.00;30.70;;;;;;;4.03;100.00;101452.90;107313;1259;71618;-85
2023/10/18 06:53:11;;;;;;;51.90;30.20;;;;;;;4.32;100.00;101455.54;107100;1248;71189;-82
2023/10/18 06:55:43;;;;;;;42.90;28.80;;;;;;;4.59;100.00;101452.85;104651;1247;3435454;-80
2023/10/18 07:00:46;;;;;;;52.60;27.70;;;;;;;5.06;100.00;101441.97;107509;1245;59118;-82
2023/10/18 07:03:17;;;;;;;40.40;26.60;;;;;;;5.28;100.00;101444.06;107338;1244;60959;-81
2023/10/18 07:05:49;;;;;;;47.70;28.40;;;;;;;5.49;100.00;101445.84;107389;1244;60976;-81
2023/10/18 07:08:25;;;;;;;50.20;27.20;;;;;;;5.68;100.00;101438.17;107405;1255;61918;-86
2023/10/18 07:10:57;;;;;;;45.70;28.50;;;;;;;6.03;100.00;101434.36;107573;1244;70160;-79
2023/10/18 07:13:57;;;;;;;40.80;28.30;;;;;;;6.23;100.00;101431.07;107445;1244;74112;-85
2023/10/18 07:21:47;;;;;;;43.30;23.90;;;;;;;6.79;100.00;101423.77;107703;1245;74119;-85
2023/10/18 07:24:25;;;;;;;37.80;24.00;;;;;;;7.10;100.00;101423.21;108573;1244;73074;-87
2023/10/18 07:26:54;;;;;;;35.10;23.20;;;;;;;7.30;100.00;101419.51;107541;1255;60461;-80
2023/10/18 07:29:27;;;;;;;32.00;20.00;;;;;;;7.50;100.00;101418.40;108159;1244;63548;-86
2023/10/18 07:31:59;;;;;;;27.80;16.30;;;;;;;7.74;100.00;101414.96;108016;1244;58770;-80
2023/10/18 07:34:32;;;;;;;27.40;15.40;;;;;;;8.06;100.00;101414.23;109116;1244;57556;-85
2023/10/18 07:37:17;;;;;;;24.90;13.90;;;;;;;8.30;100.00;101410.19;108007;1244;71733;-85
2023/10/18 07:39:56;;;;;;;20.60;11.80;;;;;;;8.54;100.00;101404.44;108062;1244;61883;-85
2023/10/18 07:42:26;;;;;;;20.20;12.00;;;;;;;8.79;100.00;101401.58;108120;1243;60411;-84
2023/10/18 07:45:02;;;;;;;18.50;11.50;;;;;;;9.15;100.00;101401.34;108108;1245;72930;-78
2023/10/18 07:47:32;;;;;;;15.40;11.40;;;;;;;9.39;100.00;101392.90;107825;1245;60738;-85
2023/10/18 07:50:01;;;;;;;22.70;12.00;;;;;;;9.54;100.00;101391.30;107571;1245;59041;-86
2023/10/18 07:52:30;;;;;;;17.70;11.40;;;;;;;9.76;100.00;101386.75;107464;1245;71398;-86
2023/10/18 07:54:58;;;;;;;18.50;11.40;;;;;;;9.90;100.00;101386.84;107439;1251;72357;-85
2023/10/18 07:57:34;;;;;;;20.30;11.60;;;;;;;9.90;100.00;101377.57;107214;1245;71707;-86
2023/10/18 08:00:22;;;;;;;20.10;11.20;;;;;;;9.97;100.00;101374.06;107325;1252;74213;-85
2023/10/18 08:02:51;;;;;;;18.10;11.40;;;;;;;10.05;100.00;101367.14;107496;1245;58931;-85
2023/10/18 08:05:43;;;;;;;18.00;11.90;;;;;;;10.13;100.00;101363.02;107227;1245;58369;-86
2023/10/18 08:08:12;;;;;;;22.90;12.50;;;;;;;10.24;100.00;101362.21;107422;1245;61500;-85
2023/10/18 08:10:42;;;;;;;17.20;10.30;;;;;;;10.38;100.00;101366.23;107369;1244;61601;-84
2023/10/18 08:13:16;;;;;;;20.20;11.30;;;;;;;10.49;100.00;101359.99;107558;1252;59335;-87
2023/10/18 08:16:10;;;;;;;19.00;10.10;;;;;;;10.66;100.00;101348.78;109068;1242;64335;-84
2023/10/18 08:18:42;;;;;;;15.40;8.10;;;;;;;10.85;100.00;101341.02;109310;1243;60132;-84
2023/10/18 08:21:26;;;;;;;13.10;6.50;;;;;;;11.04;100.00;101341.52;109031;1242;57445;-84
2023/10/18 08:23:56;;;;;;;12.10;6.50;;;;;;;11.19;100.00;101337.04;108885;1243;72147;-84
2023/10/18 08:26:29;;;;;;;9.40;5.10;;;;;;;11.35;100.00;101333.04;108892;1245;61897;-80
2023/10/18 08:28:59;;;;;;;10.40;4.70;;;;;;;11.46;100.00;101336.01;108303;1243;68620;-76
2023/10/18 08:34:26;;;;;;;11.60;4.90;;;;;;;11.72;100.00;101328.34;107630;1245;58957;-89
2023/10/18 08:37:05;;;;;;;9.30;4.60;;;;;;;11.88;100.00;101331.97;107723;1244;60248;-86
2023/10/18 08:39:39;;;;;;;7.90;4.80;;;;;;;11.83;100.00;101327.39;108170;1245;62454;-84
2023/10/18 08:42:13;;;;;;;8.40;4.50;;;;;;;12.00;100.00;101324.39;107630;1242;71331;-83
2023/10/18 08:44:44;;;;;;;9.40;4.30;;;;;;;12.12;100.00;101326.36;107674;1245;59755;-85
2023/10/18 08:47:17;;;;;;;7.90;4.60;;;;;;;12.07;100.00;101327.05;107569;1245;62439;-83
2023/10/18 08:49:56;;;;;;;;;;;;;;;12.07;100.00;101328.55;107252;1244;57889;-84
2023/10/18 08:52:28;;;;;;;8.60;4.70;;;;;;;12.15;100.00;101330.98;107443;1244;58986;-82
2023/10/18 08:55:19;;;;;;;9.40;4.60;;;;;;;12.14;100.00;101331.38;107364;1244;62678;-83
2023/10/18 08:57:57;;;;;;;9.70;4.70;;;;;;;12.32;100.00;101329.44;107218;1246;71189;-84
2023/10/18 09:02:57;;;;;;;10.50;5.00;;;;;;;12.46;100.00;101320.65;107431;1244;74314;-68
2023/10/18 09:05:26;;;;;;;7.70;4.40;;;;;;;12.62;100.00;101321.42;107156;1244;57896;-70
2023/10/18 09:08:05;;;;;;;8.50;4.20;;;;;;;12.78;100.00;101317.33;106991;1245;61496;-69
2023/10/18 09:16:01;;;;;;;6.90;3.90;;;;;;;13.23;100.00;101309.61;107173;1256;59997;-69
2023/10/18 09:18:31;;;;;;;8.90;3.90;;;;;;;13.30;100.00;101311.37;107142;1245;73611;-69
2023/10/18 09:21:26;;;;;;;6.80;3.80;;;;;;;13.37;100.00;101308.46;107056;1245;59408;-75
2023/10/18 09:24:00;;;;;;;6.00;3.10;;;;;;;13.39;100.00;101307.61;107211;1245;59053;-69
2023/10/18 09:26:40;;;;;;;5.20;3.10;;;;;;;13.34;100.00;101304.29;107057;1242;72009;-71
2023/10/18 09:29:10;;;;;;;7.50;3.30;;;;;;;13.28;100.00;101300.35;107199;1244;72441;-71
2023/10/18 09:32:01;;;;;;;7.70;3.10;;;;;;;13.28;100.00;101296.68;107275;1243;70599;-69
2023/10/18 09:34:33;;;;;;;6.10;3.70;;;;;;;13.22;100.00;101294.88;107344;1245;63709;-70
2023/10/18 09:37:12;;;;;;;;;;;;;;;13.15;100.00;101288.73;107251;1246;58970;-69
2023/10/18 09:39:45;;;;;;;6.00;3.30;;;;;;;13.29;100.00;101286.80;107387;1245;57812;-71
2023/10/18 09:42:17;;;;;;;11.80;3.80;;;;;;;13.44;100.00;101283.40;107386;1244;61900;-69
2023/10/18 09:44:46;;;;;;;7.20;4.00;;;;;;;13.58;100.00;101274.35;107341;1256;72543;-70
2023/10/18 09:47:16;;;;;;;9.10;4.40;;;;;;;13.71;100.00;101270.01;107372;1256;60112;-70
2023/10/18 09:49:47;;;;;;;6.70;3.70;;;;;;;13.82;100.00;101261.96;107247;1251;72943;-69
2023/10/18 09:52:16;;;;;;;8.00;4.50;;;;;;;13.78;100.00;101256.86;107220;1246;62084;-80
2023/10/18 09:54:49;;;;;;;8.40;4.60;;;;;;;13.70;100.00;101254.52;107198;1245;59201;-82
2023/10/18 09:57:23;;;;;;;9.80;4.30;;;;;;;13.88;100.00;101250.48;107363;1244;71817;-81
2023/10/18 09:59:57;;;;;;;6.80;3.80;;;;;;;14.04;100.00;101245.93;107246;1256;61809;-82
2023/10/18 10:02:27;;;;;;;6.20;4.00;;;;;;;14.15;100.00;101244.20;107423;1242;59242;-81
2023/10/18 10:05:04;;;;;;;5.50;3.80;;;;;;;14.10;100.00;101240.36;107326;1255;62375;-78
2023/10/18 10:07:38;;;;;;;9.40;4.00;;;;;;;14.08;100.00;101237.16;107355;1249;57446;-83
2023/10/18 10:10:09;;;;;;;10.40;4.90;;;;;;;14.09;100.00;101231.16;107324;1245;60287;-81
2023/10/18 10:12:42;;;;;;;6.40;4.00;;;;;;;14.18;100.00;101226.91;107378;1245;72102;-83
2023/10/18 10:15:14;;;;;;;8.10;4.30;;;;;;;14.48;100.00;101214.91;107355;1245;61776;-79
2023/10/18 10:17:58;;;;;;;6.20;3.90;;;;;;;14.70;97.91;101215.45;107266;1245;69639;-82
2023/10/18 10:20:33;;;;;;;6.40;3.30;;;;;;;14.99;97.33;101212.10;107402;1256;62995;-80
2023/10/18 10:23:06;;;;;;;8.00;4.60;;;;;;;15.72;90.29;101206.02;107418;1243;60386;-81
2023/10/18 10:25:36;;;;;;;6.60;4.30;;;;;;;15.63;92.66;101202.15;107188;1253;60659;-82
2023/10/18 10:31:54;;;;;;;7.40;3.90;;;;;;;15.74;92.74;101195.75;107292;1242;71487;-78
2023/10/18 10:34:37;;;;;;;10.20;4.20;;;;;;;16.10;88.52;101192.12;107531;1245;61011;-79
2023/10/18 10:37:12;;;;;;;6.40;4.10;;;;;;;16.17;86.35;101187.98;107420;1245;62255;-80
2023/10/18 10:39:49;;;;;;;8.10;4.00;;;;;;;16.29;85.84;101187.50;107266;1245;57988;-81
2023/10/18 10:42:41;;;;;;;7.80;4.10;;;;;;;16.87;85.57;101185.74;107369;1256;57477;-81
2023/10/18 10:45:30;;;;;;;9.30;4.30;;;;;;;17.18;81.82;101185.68;107456;1244;72574;-78
2023/10/18 10:48:18;;;;;;;9.10;4.00;;;;;;;16.96;80.38;101178.40;107141;1256;72517;-80
2023/10/18 10:50:52;;;;;;;8.10;4.00;;;;;;;17.01;84.31;101178.66;107363;1255;59786;-80
2023/10/18 10:53:48;;;;;;;6.70;3.50;;;;;;;17.52;80.90;101178.89;107480;1245;64115;-80
2023/10/18 10:56:17;;;;;;;8.90;4.00;;;;;;;17.19;78.75;101175.04;107353;1245;59034;-80
2023/10/18 10:58:55;;;;;;;8.70;4.00;;;;;;;17.60;78.12;101175.92;107323;1245;59423;-79
2023/10/18 11:01:39;;;;;;;7.60;3.40;;;;;;;17.82;78.29;101169.17;107282;1245;61948;-81
2023/10/18 11:04:28;;;;;;;9.20;3.70;;;;;;;17.67;77.19;101165.86;107233;1245;61669;-78
2023/10/18 11:07:01;;;;;;;6.30;3.40;;;;;;;18.61;70.53;101164.09;107691;1244;61532;-79
2023/10/18 11:09:33;;;;;;;5.40;3.20;;;;;;;18.95;66.61;101160.86;108702;1245;63152;-81
2023/10/18 11:12:12;;;;;;;7.90;3.10;;;;;;;18.82;71.34;101153.02;108446;1245;60437;-79
2023/10/18 11:14:44;;;;;;;5.60;3.10;;;;;;;19.25;59.40;101145.30;107715;1255;60758;-83
2023/10/18 11:19:53;;;;;;;5.50;2.90;;;;;;;18.61;61.17;101140.66;107413;1245;72159;-79
2023/10/18 11:22:23;;;;;;;6.10;3.50;;;;;;;19.12;55.76;101125.63;107308;1245;69241;-78
2023/10/18 11:24:55;;;;;;;7.00;3.30;;;;;;;18.95;55.11;101134.95;107191;1245;64944;-78
2023/10/18 11:27:33;;;;;;;7.10;3.30;;;;;;;18.52;56.85;101134.81;107378;1246;58775;-78
2023/10/18 11:30:25;;;;;;;5.40;2.80;;;;;;;18.47;59.45;101134.46;107511;1245;57472;-79
2023/10/18 11:32:55;;;;;;;4.60;2.60;;;;;;;18.75;59.08;101137.30;107356;1247;62907;-79
2023/10/18 11:35:42;;;;;;;3.80;2.60;;;;;;;18.98;54.99;101134.29;107155;1251;60857;-79
2023/10/18 11:38:14;;;;;;;4.60;2.30;;;;;;;19.37;52.37;101128.73;107335;1245;61131;-78
2023/10/18 11:40:50;;;;;;;5.30;2.70;;;;;;;19.38;49.13;101124.34;107228;1245;73760;-77
2023/10/18 11:43:25;;;;;;;5.80;2.70;;;;;;;19.08;49.75;101121.33;107235;1248;59081;-77
2023/10/18 11:46:06;;;;;;;6.60;2.80;;;;;;;18.40;51.55;101117.36;107227;1248;57480;-79
2023/10/18 11:48:37;;;;;;;4.90;2.90;;;;;;;17.87;54.86;101114.25;107311;1244;73465;-79
2023/10/18 11:51:12;;;;;;;9.20;3.40;;;;;;;18.02;56.59;101110.69;107213;1245;71331;-73
2023/10/18 11:53:51;;;;;;;4.70;3.00;;;;;;;17.67;57.50;101105.06;107090;1251;71555;-79
2023/10/18 11:56:20;;;;;;;6.30;3.00;;;;;;;18.09;56.29;101097.30;107256;1256;62732;-77
2023/10/18 11:59:05;;;;;;;6.20;2.60;;;;;;;18.38;55.72;101094.28;107199;1246;58916;-77
2023/10/18 12:01:34;;;;;;;4.90;2.80;;;;;;;19.03;54.79;101092.42;107205;1257;60215;-78
2023/10/18 12:04:06;;;;;;;5.80;2.90;;;;;;;19.44;54.28;101093.91;107427;1245;62070;-77
2023/10/18 12:06:43;;;;;;;5.10;2.40;;;;;;;19.68;52.02;101088.44;107176;1254;62925;-78
2023/10/18 12:11:46;;;;;;;4.00;2.30;;;;;;;20.85;48.36;101077.99;107126;1248;62455;-77
2023/10/18 12:14:15;;;;;;;3.40;2.10;;;;;;;20.92;48.62;101076.46;107124;1245;58768;-77
2023/10/18 12:16:45;;;;;;;4.30;2.50;;;;;;;21.43;46.80;101071.09;107030;1255;60781;-78
2023/10/18 12:19:15;;;;;;;5.60;2.60;;;;;;;20.73;48.10;101072.36;107017;1249;63148;-79
2023/10/18 12:21:48;;;;;;;5.70;2.30;;;;;;;20.60;46.95;101071.27;107107;1244;72681;-78
2023/10/18 12:24:18;;;;;;;;;;;;;;;20.03;47.61;101066.13;107076;1248;59565;-76
2023/10/18 12:26:53;;;;;;;4.60;2.40;;;;;;;20.38;50.23;101062.39;107011;1245;73815;-80
2023/10/18 12:29:29;;;;;;;7.30;3.00;;;;;;;20.54;48.19;101059.32;107128;1248;58704;-79
2023/10/18 12:32:19;;;;;;;10.10;3.30;;;;;;;20.00;47.95;101060.99;107046;1244;59044;-78
2023/10/18 12:34:49;;;;;;;3.90;2.10;;;;;;;20.61;48.66;101059.11;107158;1245;61949;-75
2023/10/18 12:37:18;;;;;;;5.30;2.50;;;;;;;22.19;42.93;101052.16;107077;1245;60970;-77
2023/10/18 12:39:47;;;;;;;5.70;2.20;;;;;;;21.86;41.99;101049.60;107112;1245;59423;-79
2023/10/18 12:42:19;;;;;;;5.40;2.50;;;;;;;21.56;43.66;101052.11;107021;1248;63288;-79
2023/10/18 12:44:55;;;;;;;6.20;2.50;;;;;;;21.26;42.15;101048.11;107212;1245;60966;-82
2023/10/18 12:47:24;;;;;;;5.20;2.70;;;;;;;21.51;42.75;101045.19;107023;1245;61080;-81
2023/10/18 12:49:53;;;;;;;4.10;2.00;;;;;;;22.39;40.72;101038.11;107205;1243;72418;-78
2023/10/18 12:55:32;;;;;;;4.10;2.10;;;;;;;23.29;37.44;101041.14;107122;1248;70809;-79
2023/10/18 12:57:58;;;;;;;4.70;2.20;;;;;;;23.01;37.40;101037.88;107213;1256;63828;-81
2023/10/18 13:00:34;;;;;;;6.60;2.60;;;;;;;22.46;38.20;101031.10;107160;1249;60386;-81
2023/10/18 13:05:43;;;;;;;5.80;2.50;;;;;;;21.40;40.05;101028.97;107252;1245;62940;-79
2023/10/18 13:08:26;;;;;;;5.60;2.60;;;;;;;21.95;39.46;101023.74;107230;1255;62056;-77
2023/10/18 13:13:33;;;;;;;4.30;2.10;;;;;;;22.76;37.56;101017.91;107148;1244;74032;-76
2023/10/18 13:16:02;;;;;;;5.40;2.60;;;;;;;23.51;38.38;101018.50;107185;1245;58910;-76
2023/10/18 13:18:31;;;;;;;5.70;2.40;;;;;;;24.30;37.15;101021.32;107160;1244;59029;-77
2023/10/18 13:21:05;;;;;;;4.10;2.30;;;;;;;24.33;35.16;101018.58;107190;1251;73012;-76
2023/10/18 13:23:34;;;;;;;5.50;2.70;;;;;;;24.73;34.05;101016.65;107245;1245;61152;-76
2023/10/18 13:26:04;;;;;;;3.50;1.90;;;;;;;24.09;34.48;101014.66;107268;1245;61674;-78
2023/10/18 13:31:22;;;;;;;6.60;2.60;;;;;;;23.61;34.55;101010.73;107343;1246;58300;-75
2023/10/18 13:33:52;;;;;;;4.00;2.10;;;;;;;24.02;35.42;101009.51;107314;1245;60333;-76
2023/10/18 13:36:21;;;;;;;5.00;2.30;;;;;;;24.42;34.28;101009.98;107240;1257;62509;-76
2023/10/18 13:38:53;;;;;;;4.30;2.60;;;;;;;23.18;34.27;101003.75;107297;1245;72618;-76
2023/10/18 13:41:47;;;;;;;5.40;2.30;;;;;;;21.99;35.48;101000.20;107159;1244;70702;-78
2023/10/18 13:44:25;;;;;;;5.60;2.10;;;;;;;21.92;36.00;100998.20;107097;1257;63208;-76
2023/10/18 13:46:55;;;;;;;4.30;2.50;;;;;;;22.65;35.85;100999.67;107249;1245;58894;-77
2023/10/18 13:49:41;;;;;;;3.80;2.10;;;;;;;24.08;34.74;100998.11;107192;1248;61414;-76
2023/10/18 13:52:12;;;;;;;3.90;2.20;;;;;;;24.38;34.62;100997.48;107286;1245;74978;-78
2023/10/18 13:54:43;;;;;;;6.00;2.40;;;;;;;24.56;33.68;100994.30;107352;1246;61763;-79
2023/10/18 13:57:17;;;;;;;3.10;2.10;;;;;;;24.36;32.98;100998.27;107139;1244;70275;-74
2023/10/18 13:59:51;;;;;;;4.90;2.10;;;;;;;24.78;33.48;100994.83;107116;1244;74098;-77
2023/10/18 14:02:26;;;;;;;6.00;2.20;;;;;;;24.96;32.20;100989.90;107108;1247;60118;-78
2023/10/18 14:04:58;;;;;;;5.70;1.90;;;;;;;25.24;33.35;100987.39;107014;1248;58917;-76
2023/10/18 14:07:28;;;;;;;6.30;2.40;;;;;;;24.88;31.85;100990.30;107018;1248;63226;-76
2023/10/18 14:09:57;;;;;;;4.10;1.80;;;;;;;25.28;31.83;100989.85;107071;1246;72202;-79
2023/10/18 14:12:28;;;;;;;6.60;2.00;;;;;;;24.76;31.61;100991.36;107132;1245;60534;-76
2023/10/18 14:14:57;;;;;;;3.70;1.90;;;;;;;24.27;32.19;100986.65;107111;1248;63073;-76
2023/10/18 14:17:27;;;;;;;3.70;2.00;;;;;;;24.34;31.69;100985.88;107242;1245;59120;-80
2023/10/18 14:20:10;;;;;;;5.20;2.20;;;;;;;24.04;32.86;100971.86;107715;1244;59737;-76
2023/10/18 14:22:43;;;;;;;3.90;2.10;;;;;;;24.49;32.00;100982.17;107272;1248;63335;-79
2023/10/18 14:25:13;;;;;;;4.50;2.00;;;;;;;24.19;31.77;100982.06;107283;1245;61627;-77
2023/10/18 14:27:46;;;;;;;4.20;1.90;;;;;;;24.78;32.03;100977.43;107263;1244;71455;-75
2023/10/18 14:30:16;;;;;;;4.30;2.30;;;;;;;24.63;31.75;100976.77;107148;1246;73768;-76
2023/10/18 14:32:46;;;;;;;4.90;2.70;;;;;;;23.81;31.62;100974.72;107226;1248;58830;-79
2023/10/18 14:35:16;;;;;;;8.90;5.60;;;;;;;23.85;32.94;100970.39;107290;1244;59193;-75
2023/10/18 14:37:46;;;;;;;6.20;3.00;;;;;;;23.20;32.94;100982.33;107157;1243;73321;-74
2023/10/18 14:40:15;;;;;;;4.60;2.70;;;;;;;22.43;33.62;100978.04;107017;1244;72228;-74
2023/10/18 14:42:45;;;;;;;6.90;3.30;;;;;;;21.35;35.33;100974.75;107055;1245;70844;-74
2023/10/18 14:45:14;;;;;;;5.90;3.60;;;;;;;20.62;37.63;100975.33;107041;1245;74023;-75
2023/10/18 14:47:43;;;;;;;7.90;4.30;;;;;;;19.96;39.18;100977.10;107136;1245;58971;-75
2023/10/18 14:50:14;;;;;;;9.40;4.10;;;;;;;19.22;40.71;100974.85;106981;1246;60225;-75
2023/10/18 14:52:48;;;;;;;7.10;4.30;;;;;;;18.45;43.31;100968.84;106982;1245;73533;-75
2023/10/18 14:55:17;;;;;;;6.40;3.40;;;;;;;17.98;43.22;100969.60;107017;1243;72475;-75
2023/10/18 14:57:46;;;;;;;11.50;6.10;;;;;;;17.42;51.12;100969.93;107092;1249;70744;-75
2023/10/18 15:00:21;;;;;;;20.60;7.80;;;;;;;16.90;59.30;100969.89;107135;1245;74437;-75
2023/10/18 15:02:54;;;;;;;14.70;7.30;;;;;;;16.38;65.30;100968.02;107115;1244;61108;-76
2023/10/18 15:05:23;;;;;;;17.10;8.00;;;;;;;15.94;71.82;100970.13;107182;1245;59079;-75
2023/10/18 15:07:53;;;;;;;14.30;8.40;;;;;;;15.43;74.62;100974.16;107158;1244;73430;-76
2023/10/18 15:10:23;;;;;;;12.70;7.30;;;;;;;14.86;85.40;100977.73;107291;1245;71775;-80
2023/10/18 15:12:54;;;;;;;9.50;4.90;;;;;;;14.43;79.32;100972.98;107239;1245;70784;-75
2023/10/18 15:15:23;;;;;;;11.30;4.80;;;;;;;14.02;74.91;100974.50;107161;1246;73573;-75
2023/10/18 15:17:55;;;;;;;9.30;5.50;;;;;;;13.61;73.29;100973.79;107184;1245;58906;-75
2023/10/18 15:20:27;;;;;;;9.70;5.90;;;;;;;13.17;78.31;100974.81;107091;1252;58923;-75
2023/10/18 15:23:01;;;;;;;12.70;5.20;;;;;;;12.74;80.86;100977.30;107199;1248;72652;-74
2023/10/18 15:25:31;;;;;;;7.40;5.10;;;;;;;12.36;92.53;100983.72;107159;1256;72579;-74
2023/10/18 15:28:00;;;;;;;9.30;4.90;;;;;;;11.97;98.78;100984.40;107237;1253;61371;-74
2023/10/18 15:30:31;;;;;;;8.80;4.60;;;;;;;11.60;100.00;100984.45;107591;1245;62753;-73
2023/10/18 15:33:02;;;;;;;9.60;5.40;;;;;;;11.34;100.00;100983.31;107547;1245;61770;-76
2023/10/18 15:35:33;;;;;;;11.00;5.70;;;;;;;11.07;100.00;100985.92;107179;1244;61234;-75
2023/10/18 15:38:02;;;;;;;9.90;6.50;;;;;;;10.80;100.00;100988.69;107193;1253;71850;-72
2023/10/18 15:40:33;;;;;;;9.60;6.40;;;;;;;10.51;100.00;100985.58;107279;1245;71303;-73
2023/10/18 15:43:03;;;;;;;14.60;7.90;;;;;;;10.38;100.00;100987.73;107234;1245;59550;-75
2023/10/18 15:45:32;;;;;;;12.70;6.60;;;;;;;10.18;100.00;100989.16;107124;1246;63097;-74
2023/10/18 15:48:03;;;;;;;12.90;6.60;;;;;;;9.93;100.00;100989.61;106981;1251;61108;-75
2023/10/18 15:50:33;;;;;;;13.30;6.00;;;;;;;9.65;100.00;100990.58;107028;1248;60670;-74
2023/10/18 15:53:06;;;;;;;9.60;6.30;;;;;;;9.52;100.00;100987.17;107157;1245;72795;-73
2023/10/18 15:55:35;;;;;;;10.20;5.40;;;;;;;9.43;100.00;100987.74;106941;1244;71908;-71
2023/10/18 15:58:04;;;;;;;25.10;10.90;;;;;;;9.22;100.00;100994.09;106959;1245;70781;-72
2023/10/18 16:00:34;;;;;;;12.00;7.40;;;;;;;9.09;100.00;100993.38;107160;1245;73612;-75
2023/10/18 16:03:03;;;;;;;31.60;14.10;;;;;;;8.91;100.00;100990.85;107108;1245;63015;-76
2023/10/18 16:05:35;;;;;;;31.50;13.70;;;;;;;8.81;100.00;100992.83;107128;1245;60810;-75
2023/10/18 16:08:05;;;;;;;18.10;9.10;;;;;;;8.68;100.00;100995.51;106978;1256;73807;-72
2023/10/18 16:10:34;;;;;;;19.00;9.00;;;;;;;8.60;100.00;100997.77;107198;1245;62086;-76
2023/10/18 16:13:07;;;;;;;15.40;8.00;;;;;;;8.49;100.00;100997.33;106993;1255;60272;-74
2023/10/18 16:15:37;;;;;;;13.10;7.80;;;;;;;8.35;100.00;101000.93;107093;1256;63092;-75
2023/10/18 16:18:06;;;;;;;16.40;8.40;;;;;;;8.27;100.00;101004.48;106986;1244;62733;-74
2023/10/18 16:20:37;;;;;;;14.00;7.60;;;;;;;8.16;100.00;101002.52;107177;1246;59426;-74
2023/10/18 16:23:07;;;;;;;13.50;7.60;;;;;;;8.06;100.00;101003.45;107165;1248;63459;-74
2023/10/18 16:25:41;;;;;;;13.00;8.00;;;;;;;7.95;100.00;100999.41;107152;1246;61490;-73
2023/10/18 16:28:10;;;;;;;13.20;7.80;;;;;;;7.88;100.00;101003.28;107139;1246;68594;-74
2023/10/18 16:30:40;;;;;;;11.20;6.90;;;;;;;7.80;100.00;101004.05;107223;1244;64252;-76
2023/10/18 16:33:12;;;;;;;12.00;6.80;;;;;;;7.75;100.00;101001.43;107164;1245;58848;-75
2023/10/18 16:35:43;;;;;;;13.30;7.90;;;;;;;7.69;100.00;101003.81;107062;1245;59044;-75
2023/10/18 16:38:11;;;;;;;14.10;8.60;;;;;;;7.61;100.00;101002.67;107248;1246;72500;-77
2023/10/18 16:40:41;;;;;;;14.60;8.70;;;;;;;7.55;100.00;101002.52;107101;1246;71974;-74
2023/10/18 16:43:10;;;;;;;16.10;10.40;;;;;;;7.54;100.00;101002.20;107287;1252;70854;-71
2023/10/18 16:45:40;;;;;;;17.40;9.70;;;;;;;7.48;100.00;100999.41;107182;1244;74077;-74
2023/10/18 16:48:10;;;;;;;13.70;8.20;;;;;;;7.41;100.00;100993.92;107202;1254;63251;-73
2023/10/18 16:50:42;;;;;;;15.10;8.80;;;;;;;7.37;100.00;100994.46;107254;1245;59189;-73
2023/10/18 16:53:15;;;;;;;14.00;9.50;;;;;;;7.31;100.00;100992.90;107335;1255;62765;-72
2023/10/18 16:55:52;;;;;;;12.50;7.70;;;;;;;7.24;100.00;100993.45;107390;1245;71926;-76
2023/10/18 16:58:25;;;;;;;17.90;9.10;;;;;;;7.17;100.00;100988.64;107291;1246;60321;-74
2023/10/18 17:01:09;;;;;;;16.00;8.40;;;;;;;7.09;100.00;100992.34;107224;1245;62320;-73
2023/10/18 17:03:44;;;;;;;13.90;7.30;;;;;;;7.02;100.00;100997.41;107238;1243;58721;-71
2023/10/18 17:06:15;;;;;;;15.60;7.50;;;;;;;6.94;100.00;100996.45;107213;1253;60244;-78
2023/10/18 17:08:46;;;;;;;12.70;7.50;;;;;;;6.89;100.00;100999.12;107054;1248;62525;-74
2023/10/18 17:11:32;;;;;;;16.30;8.70;;;;;;;6.86;100.00;100995.27;104685;1274;600715;-72
2023/10/18 17:14:04;;;;;;;17.90;9.60;;;;;;;6.79;100.00;100996.20;106513;1261;59044;-72
2023/10/18 17:16:35;;;;;;;17.10;9.30;;;;;;;6.75;100.00;100994.83;106212;1261;59059;-71
2023/10/18 17:19:04;;;;;;;16.60;8.90;;;;;;;6.71;100.00;100992.27;106973;1247;71329;-71
2023/10/18 17:21:33;;;;;;;14.20;9.10;;;;;;;6.67;100.00;100990.06;106918;1252;61303;-72
2023/10/18 17:24:03;;;;;;;14.40;8.90;;;;;;;6.64;100.00;100985.36;106608;1251;392975;-71
2023/10/18 17:26:32;;;;;;;20.10;11.10;;;;;;;6.63;100.00;100986.77;107129;1248;74102;-70
2023/10/18 17:29:02;;;;;;;19.30;10.80;;;;;;;6.64;100.00;100979.81;107149;1248;57499;-73
2023/10/18 17:31:34;;;;;;;21.40;10.90;;;;;;;6.66;100.00;100977.66;107095;1258;57455;-74
2023/10/18 17:34:05;;;;;;;22.20;11.30;;;;;;;6.64;100.00;100973.94;106979;1248;61158;-76
2023/10/18 17:36:34;;;;;;;17.20;10.30;;;;;;;6.64;100.00;100975.14;106861;1249;71563;-76
2023/10/18 17:39:04;;;;;;;21.60;11.60;;;;;;;6.62;100.00;100972.77;107016;1248;71646;-75
2023/10/18 17:41:33;;;;;;;22.40;11.20;;;;;;;6.59;100.00;100970.39;106967;1255;63987;-72
2023/10/18 17:44:16;;;;;;;18.00;11.10;;;;;;;6.50;100.00;100967.20;106969;1248;62831;-73
2023/10/18 17:46:45;;;;;;;23.60;11.70;;;;;;;6.49;100.00;100972.84;107299;1245;59581;-72
2023/10/18 17:49:16;;;;;;;16.10;10.80;;;;;;;6.46;100.00;100969.54;107197;1256;63813;-71
2023/10/18 17:51:48;;;;;;;19.10;11.50;;;;;;;6.36;100.00;100969.11;107404;1246;71760;-73
2023/10/18 17:54:20;;;;;;;19.90;11.30;;;;;;;6.31;100.00;100965.06;107277;1246;59571;-80
2023/10/18 17:56:56;;;;;;;16.20;10.60;;;;;;;6.26;100.00;100964.30;107093;1244;73076;-71
2023/10/18 17:59:25;;;;;;;22.80;12.70;;;;;;;6.21;100.00;100966.59;107105;1245;59085;-74
2023/10/18 18:01:54;;;;;;;21.10;12.50;;;;;;;6.18;100.00;100963.61;107151;1244;58971;-75
2023/10/18 18:04:23;;;;;;;19.40;11.40;;;;;;;6.17;100.00;100963.54;107118;1252;72662;-79
2023/10/18 18:06:52;;;;;;;21.30;13.10;;;;;;;6.10;100.00;100961.23;107118;1244;70748;-75
2023/10/18 18:09:22;;;;;;;19.90;11.90;;;;;;;6.07;100.00;100963.14;107190;1247;59589;-77
2023/10/18 18:11:53;;;;;;;20.90;11.60;;;;;;;6.04;100.00;100963.47;107211;1245;73805;-76
2023/10/18 18:14:24;;;;;;;21.30;12.90;;;;;;;5.97;100.00;100961.75;107132;1256;63594;-77
2023/10/18 18:16:53;;;;;;;19.50;11.40;;;;;;;5.93;100.00;100962.95;107261;1256;57967;-77
2023/10/18 18:19:24;;;;;;;24.10;12.40;;;;;;;5.90;100.00;100959.81;107076;1251;71932;-76
2023/10/18 18:21:53;;;;;;;22.90;12.00;;;;;;;5.91;100.00;100961.19;107197;1255;72886;-76
2023/10/18 18:24:22;;;;;;;27.50;12.50;;;;;;;5.91;100.00;100960.99;107196;1254;70387;-77
2023/10/18 18:26:51;;;;;;;17.20;10.70;;;;;;;5.94;100.00;100962.40;107277;1257;74098;-73
2023/10/18 18:29:21;;;;;;;19.10;10.90;;;;;;;5.94;100.00;100962.55;107235;1255;62007;-73
2023/10/18 18:31:50;;;;;;;19.70;10.70;;;;;;;5.95;100.00;100962.03;107176;1248;60855;-73
2023/10/18 18:34:19;;;;;;;16.30;10.90;;;;;;;5.93;100.00;100961.43;107220;1257;72497;-72
2023/10/18 18:36:48;;;;;;;17.00;10.80;;;;;;;5.95;100.00;100957.19;107180;1248;62368;-71
2023/10/18 18:39:20;;;;;;;17.30;10.40;;;;;;;5.94;100.00;100957.04;107249;1255;70911;-71
2023/10/18 18:41:50;;;;;;;19.00;10.20;;;;;;;5.92;100.00;100950.06;107422;1246;73671;-72
2023/10/18 18:44:19;;;;;;;17.70;10.00;;;;;;;5.91;100.00;100948.04;107231;1246;61725;-74
2023/10/18 18:46:49;;;;;;;16.90;10.30;;;;;;;5.92;100.00;100946.92;107322;1255;60928;-75
2023/10/18 18:49:20;;;;;;;21.30;9.90;;;;;;;5.95;100.00;100949.40;107102;1245;61989;-75
2023/10/18 18:51:49;;;;;;;14.60;9.90;;;;;;;5.99;100.00;100949.02;107151;1257;61523;-74
2023/10/18 18:54:18;;;;;;;18.20;10.70;;;;;;;6.04;100.00;100950.18;107096;1249;70278;-74
2023/10/18 18:56:48;;;;;;;17.60;10.20;;;;;;;6.06;100.00;100945.04;107046;1247;74199;-76